Upton, New York
Current Conditions -  °F | °C
As of 9:56 AM on Friday 19 Dec 2014 (Local Time) from KHWV Reporting Station
Overcast Overcast  
Wind Chill: 29°   Ceiling: 3400
Heat Index: 37°   Visibility: 10mi
Dew Point: 25°   Wind: 13mph
Humidity: 62%   Direction: 350°N
Pressure: 30.03"   Gusts: NA
Location:  40.87°N, 72.89°W
Report Text: KHWV 191456Z AUTO 35011KT 10SM OVC034 03/M04 A3003 RMK AO2 SLP169 T00281039 53015 TSNO
Loading
Personal Weather Stations






























Interactive Weather Map New forecast layout! Learn more

10-Day Weather Forecast

Advertisements
Track Severe Weather on mobile